Time;durP1;ratioP1;P1;durP2;ratioP2;P2;SDS_P1;SDS_P2;PMS_P1;PMS_P2;Temp;Humidity;BMP_temperature;BMP_pressure;BME280_temperature;BME280_humidity;BME280_pressure;Samples;Min_cycle;Max_cycle;Signal;HPM_P1;HPM_P2
2022/11/10 00:00:34;;;;;;;2.17;1.17;;;11.90;99.90;;;;;;4161280;28;20214;-77
2022/11/10 00:02:36;;;;;;;3.00;1.27;;;11.80;99.90;;;;;;4161363;28;20210;-76
2022/11/10 00:04:38;;;;;;;3.50;1.23;;;11.80;99.90;;;;;;4159745;28;20210;-77
2022/11/10 00:06:43;;;;;;;4.70;1.47;;;11.80;99.90;;;;;;4162752;28;20227;-76
2022/11/10 00:08:45;;;;;;;4.93;1.37;;;11.80;99.90;;;;;;4165736;28;20229;-77
2022/11/10 00:11:00;;;;;;;4.03;1.30;;;11.80;99.90;;;;;;4158102;28;20202;-76
2022/11/10 00:13:03;;;;;;;3.27;1.40;;;11.80;99.90;;;;;;4159643;28;20272;-77
2022/11/10 00:17:25;;;;;;;8.00;1.50;;;11.70;99.90;;;;;;4157768;28;20225;-76
2022/11/10 00:19:27;;;;;;;2.77;1.20;;;11.70;99.90;;;;;;4156657;28;20266;-77
2022/11/10 00:21:29;;;;;;;3.77;1.27;;;11.70;99.90;;;;;;4159837;28;20209;-77
2022/11/10 00:23:33;;;;;;;4.63;1.20;;;11.70;99.90;;;;;;4162744;28;20209;-77
2022/11/10 00:25:35;;;;;;;3.47;1.17;;;11.70;99.90;;;;;;4158401;28;20308;-76
2022/11/10 00:27:37;;;;;;;2.97;1.10;;;11.60;99.90;;;;;;4153600;28;20241;-77
2022/11/10 00:29:39;;;;;;;1.93;1.00;;;11.60;99.90;;;;;;4161552;28;20214;-76
2022/11/10 00:31:42;;;;;;;1.87;1.00;;;11.60;99.90;;;;;;4161018;28;20198;-77
2022/11/10 00:33:44;;;;;;;3.17;1.20;;;11.60;99.90;;;;;;4158625;28;20204;-77
2022/11/10 00:35:46;;;;;;;2.13;1.20;;;11.50;99.90;;;;;;4162866;28;20214;-76
2022/11/10 00:37:49;;;;;;;4.07;1.27;;;11.50;99.90;;;;;;4159856;28;20265;-76
2022/11/10 00:39:53;;;;;;;2.03;1.10;;;11.50;99.90;;;;;;4164203;28;20211;-76
2022/11/10 00:41:55;;;;;;;2.80;1.20;;;11.50;99.90;;;;;;4161976;28;20214;-77
2022/11/10 00:43:57;;;;;;;2.83;0.90;;;11.50;99.90;;;;;;4156680;28;20202;-76
2022/11/10 00:45:59;;;;;;;2.93;1.20;;;11.40;99.90;;;;;;4158531;28;20217;-77
2022/11/10 00:48:01;;;;;;;2.43;0.90;;;11.40;99.90;;;;;;4155363;28;20660;-76
2022/11/10 00:50:03;;;;;;;4.77;1.40;;;11.40;99.90;;;;;;4158787;28;20266;-77
2022/11/10 00:52:05;;;;;;;6.57;1.47;;;11.30;99.90;;;;;;4157461;28;20238;-76
2022/11/10 00:54:07;;;;;;;6.13;1.40;;;11.30;99.90;;;;;;4162230;28;20255;-76
2022/11/10 00:56:11;;;;;;;3.30;1.30;;;11.20;99.90;;;;;;4158326;28;20603;-76
2022/11/10 00:58:13;;;;;;;3.43;1.30;;;11.30;99.90;;;;;;4162074;28;20213;-76
2022/11/10 01:00:15;;;;;;;5.47;1.53;;;11.20;99.90;;;;;;4158961;28;20212;-77
2022/11/10 01:02:17;;;;;;;3.13;1.23;;;11.20;99.90;;;;;;4163494;28;20259;-76
2022/11/10 01:04:19;;;;;;;3.73;1.33;;;11.20;99.90;;;;;;4159680;28;20202;-76
2022/11/10 01:06:22;;;;;;;4.90;1.37;;;11.20;99.90;;;;;;4158446;28;20229;-77
2022/11/10 01:08:24;;;;;;;2.63;1.00;;;11.10;99.90;;;;;;4157467;28;20704;-77
2022/11/10 01:10:27;;;;;;;4.07;1.30;;;11.10;99.90;;;;;;4161178;28;20213;-76
2022/11/10 01:12:30;;;;;;;3.13;1.17;;;11.10;99.90;;;;;;4160708;28;20218;-76
2022/11/10 01:14:32;;;;;;;6.33;1.23;;;11.10;99.90;;;;;;4162254;28;20206;-76
2022/11/10 01:16:34;;;;;;;3.43;1.20;;;11.00;99.90;;;;;;4158466;28;20237;-76
2022/11/10 01:18:37;;;;;;;3.50;1.10;;;11.00;99.90;;;;;;4160726;28;20220;-77
2022/11/10 01:20:39;;;;;;;3.33;1.00;;;11.00;99.90;;;;;;4162356;28;20220;-76
2022/11/10 01:22:41;;;;;;;3.17;1.20;;;11.00;99.90;;;;;;4155858;28;20237;-77
2022/11/10 01:24:43;;;;;;;5.40;1.27;;;11.00;99.90;;;;;;4152389;28;20205;-76
2022/11/10 01:26:45;;;;;;;5.40;1.57;;;11.00;99.90;;;;;;4161949;28;20373;-77
2022/11/10 01:28:48;;;;;;;3.50;1.10;;;10.90;99.90;;;;;;4156864;28;20272;-76
2022/11/10 01:30:56;;;;;;;5.33;1.20;;;10.90;99.90;;;;;;4161000;28;20210;-78
2022/11/10 01:32:58;;;;;;;3.90;1.50;;;10.90;99.90;;;;;;4160472;28;20331;-76
2022/11/10 01:35:00;;;;;;;3.10;1.30;;;10.90;99.90;;;;;;4154690;28;20210;-76
2022/11/10 01:37:02;;;;;;;5.73;1.17;;;10.90;99.90;;;;;;4160891;28;20265;-76
2022/11/10 01:39:04;;;;;;;5.03;1.20;;;10.90;99.90;;;;;;4162499;28;20237;-76
2022/11/10 01:41:08;;;;;;;3.37;1.40;;;10.90;99.90;;;;;;4163569;28;20304;-76
2022/11/10 01:43:11;;;;;;;4.23;1.17;;;10.80;99.90;;;;;;4162834;28;20290;-76
2022/11/10 01:45:43;;;;;;;2.37;1.10;;;10.80;99.90;;;;;;4164780;28;20649;-76
2022/11/10 01:47:45;;;;;;;7.23;1.40;;;10.80;99.90;;;;;;4162531;28;20331;-76
2022/11/10 01:49:47;;;;;;;4.83;1.40;;;10.80;99.90;;;;;;4164879;28;20205;-76
2022/11/10 01:51:51;;;;;;;5.50;1.40;;;10.80;99.90;;;;;;4163817;28;20270;-76
2022/11/10 01:53:56;;;;;;;3.93;1.20;;;10.70;99.90;;;;;;4165264;28;20259;-76
2022/11/10 01:55:59;;;;;;;3.80;1.10;;;10.70;99.90;;;;;;4165120;28;20236;-76
2022/11/10 01:58:02;;;;;;;3.93;1.10;;;10.70;99.90;;;;;;4164845;28;20695;-76
2022/11/10 02:00:05;;;;;;;3.60;1.30;;;10.70;99.90;;;;;;4165694;28;20648;-76
2022/11/10 02:02:17;;;;;;;5.40;1.20;;;10.70;99.90;;;;;;4164863;28;20209;-76
2022/11/10 02:04:20;;;;;;;3.53;1.20;;;10.60;99.90;;;;;;4162691;28;20554;-76
2022/11/10 02:06:25;;;;;;;2.50;1.20;;;10.60;99.90;;;;;;4164503;28;20279;-76
2022/11/10 02:08:28;;;;;;;2.50;1.10;;;10.60;99.90;;;;;;4164974;28;20928;-76
2022/11/10 02:10:30;;;;;;;2.70;1.10;;;10.60;99.90;;;;;;4163455;28;20668;-76
2022/11/10 02:12:38;;;;;;;4.73;1.20;;;10.60;99.90;;;;;;4160080;28;20238;-76
2022/11/10 02:14:40;;;;;;;4.20;1.33;;;10.60;99.90;;;;;;4164386;28;20755;-76
2022/11/10 02:16:43;;;;;;;2.00;1.30;;;10.60;99.90;;;;;;4163853;28;20776;-76
2022/11/10 02:18:46;;;;;;;4.83;1.40;;;10.60;99.90;;;;;;4163563;28;20223;-76
2022/11/10 02:20:49;;;;;;;4.47;1.47;;;10.50;99.90;;;;;;4165500;28;20204;-77
2022/11/10 02:22:51;;;;;;;4.07;1.33;;;10.60;99.90;;;;;;4163955;28;20707;-75
2022/11/10 02:24:53;;;;;;;5.13;1.13;;;10.50;99.90;;;;;;4162344;28;20270;-76
2022/11/10 02:26:57;;;;;;;5.33;1.43;;;10.50;99.90;;;;;;4163813;28;20311;-76
2022/11/10 02:28:59;;;;;;;3.90;1.00;;;10.50;99.90;;;;;;4162725;28;20214;-76
2022/11/10 02:31:01;;;;;;;4.97;1.20;;;10.50;99.90;;;;;;4165699;28;20282;-76
2022/11/10 02:33:03;;;;;;;2.50;1.10;;;10.50;99.90;;;;;;4160973;28;20686;-76
2022/11/10 02:35:06;;;;;;;5.43;1.53;;;10.40;99.90;;;;;;4164756;28;20232;-76
2022/11/10 02:37:10;;;;;;;3.63;1.10;;;10.40;99.90;;;;;;4157519;28;20718;-76
2022/11/10 02:39:12;;;;;;;6.17;1.47;;;10.40;99.90;;;;;;4163627;28;20318;-76
2022/11/10 02:41:13;;;;;;;3.50;1.37;;;10.40;99.90;;;;;;4163853;28;20347;-77
2022/11/10 02:43:18;;;;;;;6.60;1.93;;;10.40;99.90;;;;;;4163696;28;20204;-76
2022/11/10 02:45:20;;;;;;;2.70;1.43;;;10.40;99.90;;;;;;4165009;28;20213;-76
2022/11/10 02:47:22;;;;;;;3.10;1.17;;;10.40;99.90;;;;;;4166005;28;20228;-76
2022/11/10 02:49:24;;;;;;;4.20;1.20;;;10.30;99.90;;;;;;4164987;28;20213;-76
2022/11/10 02:51:26;;;;;;;4.50;1.40;;;10.30;99.90;;;;;;4165404;28;20227;-76
2022/11/10 02:53:29;;;;;;;4.53;1.40;;;10.30;99.90;;;;;;4165116;28;20273;-76
2022/11/10 02:55:31;;;;;;;5.33;1.43;;;10.30;99.90;;;;;;4164285;28;20576;-76
2022/11/10 02:57:33;;;;;;;2.03;1.23;;;10.30;99.90;;;;;;4157797;28;20243;-76
2022/11/10 02:59:35;;;;;;;2.40;1.10;;;10.20;99.90;;;;;;4156667;28;20726;-76
2022/11/10 03:01:37;;;;;;;2.50;1.07;;;10.20;99.90;;;;;;4163099;28;20719;-76
2022/11/10 03:03:39;;;;;;;4.47;1.30;;;10.20;99.90;;;;;;4168384;28;20265;-76
2022/11/10 03:05:41;;;;;;;5.10;1.50;;;10.20;99.90;;;;;;4166113;28;20207;-76
2022/11/10 03:07:43;;;;;;;3.77;1.23;;;10.20;99.90;;;;;;4166864;28;20765;-76
2022/11/10 03:09:46;;;;;;;3.63;1.07;;;10.20;99.90;;;;;;4163085;28;20694;-76
2022/11/10 03:11:48;;;;;;;5.83;1.20;;;10.10;99.90;;;;;;4165428;28;20667;-76
2022/11/10 03:13:50;;;;;;;4.23;1.30;;;10.10;99.90;;;;;;4167742;28;20240;-76
2022/11/10 03:15:52;;;;;;;4.53;1.30;;;10.10;99.90;;;;;;4167115;28;20231;-76
2022/11/10 03:17:55;;;;;;;4.20;1.30;;;10.10;99.90;;;;;;4164311;28;20230;-76
2022/11/10 03:19:56;;;;;;;7.93;1.57;;;10.10;99.90;;;;;;4165062;28;20683;-75
2022/11/10 03:21:58;;;;;;;2.73;1.30;;;10.10;99.90;;;;;;4164489;28;20207;-77
2022/11/10 03:24:00;;;;;;;5.97;1.20;;;10.00;99.90;;;;;;4161255;28;20606;-78
2022/11/10 03:26:05;;;;;;;4.23;1.13;;;10.00;99.90;;;;;;4164407;28;20647;-77
2022/11/10 03:28:07;;;;;;;6.33;1.30;;;10.00;99.90;;;;;;4163316;28;20206;-77
2022/11/10 03:30:10;;;;;;;5.10;1.40;;;10.00;99.90;;;;;;4163427;28;20238;-76
2022/11/10 03:32:12;;;;;;;5.40;1.33;;;10.00;99.90;;;;;;4163463;28;20226;-77
2022/11/10 03:34:14;;;;;;;7.53;1.60;;;10.00;99.90;;;;;;4163856;28;20660;-77
2022/11/10 03:36:15;;;;;;;6.57;1.47;;;9.90;99.90;;;;;;4160618;28;20231;-78
2022/11/10 03:38:17;;;;;;;4.00;1.77;;;9.90;99.90;;;;;;4161737;28;20291;-77
2022/11/10 03:40:20;;;;;;;3.67;1.47;;;9.90;99.90;;;;;;4168482;28;20233;-77
2022/11/10 03:42:23;;;;;;;2.73;1.30;;;9.90;99.90;;;;;;4170739;28;20219;-77
2022/11/10 03:44:25;;;;;;;7.30;1.30;;;9.90;99.90;;;;;;4164205;28;20651;-77
2022/11/10 03:46:27;;;;;;;7.10;1.30;;;9.90;99.90;;;;;;4162865;28;20234;-77
2022/11/10 03:48:29;;;;;;;5.70;1.53;;;9.80;99.90;;;;;;4159340;28;20204;-77
2022/11/10 03:50:31;;;;;;;4.70;1.40;;;9.80;99.90;;;;;;4162810;28;20286;-77
2022/11/10 03:52:33;;;;;;;6.20;1.30;;;9.80;99.90;;;;;;4163239;28;20313;-77
2022/11/10 03:54:35;;;;;;;4.83;1.37;;;9.80;99.90;;;;;;4159278;28;20700;-77
2022/11/10 03:56:37;;;;;;;9.10;1.47;;;9.80;99.90;;;;;;4161821;28;20277;-77
2022/11/10 03:58:40;;;;;;;4.47;1.33;;;9.70;99.90;;;;;;4162279;28;20286;-77
2022/11/10 04:00:42;;;;;;;10.60;1.63;;;9.70;99.90;;;;;;4163489;28;20741;-77
2022/11/10 04:02:44;;;;;;;3.63;1.10;;;9.70;99.90;;;;;;4159659;28;20218;-77
2022/11/10 04:09:25;;;;;;;4.60;1.53;;;9.60;99.90;;;;;;4154710;28;20293;-76
2022/11/10 04:16:08;;;;;;;7.40;1.77;;;9.60;99.90;;;;;;4156807;28;20212;-77
2022/11/10 04:18:23;;;;;;;5.13;1.70;;;9.60;99.90;;;;;;4161273;28;20227;-77
2022/11/10 04:20:25;;;;;;;7.07;1.37;;;9.60;99.90;;;;;;4158304;28;20223;-77
2022/11/10 04:24:42;;;;;;;3.63;1.43;;;9.60;99.90;;;;;;4162082;28;20199;-77
2022/11/10 04:26:46;;;;;;;3.67;1.20;;;9.60;99.90;;;;;;4158576;28;20702;-77
2022/11/10 04:28:51;;;;;;;6.37;1.60;;;9.60;99.90;;;;;;4156532;28;20203;-77
2022/11/10 04:30:53;;;;;;;5.03;1.20;;;9.50;99.90;;;;;;4163482;28;20252;-77
2022/11/10 04:32:55;;;;;;;2.33;1.10;;;9.50;99.90;;;;;;4154413;28;20227;-77
2022/11/10 04:34:56;;;;;;;7.50;1.30;;;9.50;99.90;;;;;;4153926;28;20339;-77
2022/11/10 04:36:58;;;;;;;7.07;1.67;;;9.50;99.90;;;;;;4162661;28;20223;-77
2022/11/10 04:39:01;;;;;;;5.53;1.30;;;9.50;99.90;;;;;;4155440;28;20200;-77
2022/11/10 04:41:03;;;;;;;6.57;1.27;;;9.50;99.90;;;;;;4154166;28;20242;-77
2022/11/10 04:43:05;;;;;;;3.10;1.27;;;9.50;99.90;;;;;;4166370;28;20215;-78
2022/11/10 04:45:09;;;;;;;4.50;1.20;;;9.40;99.90;;;;;;4163337;28;20657;-78
2022/11/10 04:47:11;;;;;;;3.97;1.20;;;9.40;99.90;;;;;;4168894;28;20250;-77
2022/11/10 04:49:13;;;;;;;4.37;1.43;;;9.40;99.90;;;;;;4163322;28;20748;-77
2022/11/10 04:51:15;;;;;;;3.63;1.47;;;9.40;99.90;;;;;;4162763;28;20204;-77
2022/11/10 04:53:18;;;;;;;3.43;1.30;;;9.40;99.90;;;;;;4158508;28;20258;-77
2022/11/10 04:55:20;;;;;;;4.67;1.60;;;9.40;99.90;;;;;;4161694;28;20248;-77
2022/11/10 04:57:22;;;;;;;5.30;1.30;;;9.30;99.90;;;;;;4159014;28;20243;-77
2022/11/10 04:59:24;;;;;;;4.70;1.30;;;9.30;99.90;;;;;;4162460;28;20235;-77
2022/11/10 05:01:28;;;;;;;7.57;1.27;;;9.30;99.90;;;;;;4160695;28;20230;-77
2022/11/10 05:03:31;;;;;;;3.83;1.33;;;9.30;99.90;;;;;;4156945;28;20464;-77
2022/11/10 05:05:33;;;;;;;4.87;1.47;;;9.30;99.90;;;;;;4156621;28;20206;-77
2022/11/10 05:07:35;;;;;;;6.27;1.50;;;9.30;99.90;;;;;;4152512;28;20246;-76
2022/11/10 05:09:37;;;;;;;3.03;1.33;;;9.20;99.90;;;;;;4155514;28;20249;-77
2022/11/10 05:11:39;;;;;;;3.80;1.33;;;9.20;99.90;;;;;;4162646;28;20567;-77
2022/11/10 05:13:42;;;;;;;5.00;1.30;;;9.20;99.90;;;;;;4161117;28;20899;-77
2022/11/10 05:15:45;;;;;;;6.93;1.50;;;9.20;99.90;;;;;;4165686;28;20458;-77
2022/11/10 05:17:50;;;;;;;3.23;1.23;;;9.20;99.90;;;;;;4153961;28;20223;-77
2022/11/10 05:19:52;;;;;;;5.40;1.60;;;9.10;99.90;;;;;;4158851;28;20585;-77
2022/11/10 05:21:53;;;;;;;5.57;1.50;;;9.10;99.90;;;;;;4158963;28;20473;-77
2022/11/10 05:23:55;;;;;;;6.73;1.77;;;9.10;99.90;;;;;;4161397;28;20968;-77
2022/11/10 05:25:57;;;;;;;8.30;1.40;;;9.10;99.90;;;;;;4159404;28;20223;-77
2022/11/10 05:27:59;;;;;;;6.20;1.43;;;9.10;99.90;;;;;;4162405;28;20242;-76
2022/11/10 05:30:01;;;;;;;3.77;1.47;;;9.00;99.90;;;;;;4159136;28;20201;-76
2022/11/10 05:32:03;;;;;;;4.87;1.40;;;9.00;99.90;;;;;;4162361;28;20469;-76
2022/11/10 05:34:07;;;;;;;6.97;1.73;;;9.00;99.90;;;;;;4158296;28;20246;-77
2022/11/10 05:36:10;;;;;;;4.50;1.57;;;9.00;99.90;;;;;;4160938;28;20450;-77
2022/11/10 05:38:12;;;;;;;3.80;1.40;;;8.90;99.90;;;;;;4159519;28;20447;-77
2022/11/10 05:40:14;;;;;;;2.73;1.40;;;8.90;99.90;;;;;;4161728;28;20449;-77
2022/11/10 05:42:15;;;;;;;1.90;1.13;;;8.90;99.90;;;;;;4159333;28;20826;-77
2022/11/10 05:44:17;;;;;;;3.43;1.30;;;8.90;99.90;;;;;;4163127;28;20669;-76
2022/11/10 05:46:19;;;;;;;7.70;2.33;;;8.90;99.90;;;;;;4153967;28;20470;-77
2022/11/10 05:48:21;;;;;;;4.43;2.10;;;8.90;99.90;;;;;;4160432;28;20214;-77
2022/11/10 05:50:25;;;;;;;4.83;1.70;;;8.90;99.90;;;;;;4150410;28;20529;-77
2022/11/10 05:52:27;;;;;;;3.83;1.77;;;8.90;99.90;;;;;;4159098;28;20254;-77
2022/11/10 05:54:29;;;;;;;4.73;1.60;;;8.90;99.90;;;;;;4156718;28;20482;-77
2022/11/10 05:56:31;;;;;;;5.83;1.93;;;8.80;99.90;;;;;;4158587;28;20489;-77
2022/11/10 05:58:32;;;;;;;7.17;1.80;;;8.90;99.90;;;;;;4158528;28;20507;-78
2022/11/10 06:00:35;;;;;;;8.40;2.83;;;8.90;99.90;;;;;;4146572;28;20476;-77
2022/11/10 06:02:37;;;;;;;6.13;2.60;;;8.90;99.90;;;;;;4154811;28;20457;-77
2022/11/10 06:04:39;;;;;;;9.40;2.37;;;8.90;99.90;;;;;;4158245;28;21016;-77
2022/11/10 06:06:42;;;;;;;6.77;1.80;;;8.90;99.90;;;;;;4160793;28;20462;-77
2022/11/10 06:08:44;;;;;;;4.13;1.90;;;8.90;99.90;;;;;;4156383;28;20466;-76
2022/11/10 06:10:46;;;;;;;3.80;1.80;;;8.90;99.90;;;;;;4156798;28;21191;-76
2022/11/10 06:12:48;;;;;;;7.50;1.70;;;8.90;99.90;;;;;;4158995;28;20543;-76
2022/11/10 06:14:50;;;;;;;5.10;1.50;;;8.90;99.90;;;;;;4160505;28;20478;-77
2022/11/10 06:16:51;;;;;;;4.50;1.50;;;8.90;99.90;;;;;;4153163;28;20492;-77
2022/11/10 06:18:53;;;;;;;6.60;1.70;;;8.90;99.90;;;;;;4157993;28;20454;-77
2022/11/10 06:20:55;;;;;;;3.70;1.67;;;8.90;99.90;;;;;;4153661;28;20223;-77
2022/11/10 06:23:00;;;;;;;6.13;1.70;;;8.90;99.90;;;;;;4174874;28;20491;-77
2022/11/10 06:25:03;;;;;;;3.57;1.80;;;8.90;99.90;;;;;;4159751;28;20442;-77
2022/11/10 06:27:04;;;;;;;2.33;1.23;;;8.90;99.90;;;;;;4154868;28;20564;-77
2022/11/10 06:29:06;;;;;;;3.40;1.47;;;8.90;99.90;;;;;;4158816;28;20871;-77
2022/11/10 06:31:08;;;;;;;5.73;1.80;;;8.90;99.90;;;;;;4163322;28;20481;-77
2022/11/10 06:33:10;;;;;;;7.77;1.73;;;8.90;99.90;;;;;;4162443;28;20509;-77
2022/11/10 06:35:12;;;;;;;5.53;1.60;;;8.80;99.90;;;;;;4158742;28;20571;-77
2022/11/10 06:37:14;;;;;;;7.30;1.40;;;8.80;99.90;;;;;;4156881;28;20486;-78
2022/11/10 06:39:18;;;;;;;4.77;1.57;;;8.80;99.90;;;;;;4160090;28;20497;-78
2022/11/10 06:41:20;;;;;;;2.83;1.50;;;8.80;99.90;;;;;;4178571;28;20458;-78
2022/11/10 06:43:21;;;;;;;5.83;1.30;;;8.80;99.90;;;;;;4157175;28;20466;-77
2022/11/10 06:45:27;;;;;;;6.47;1.77;;;8.80;99.90;;;;;;4158680;28;20474;-77
2022/11/10 06:47:29;;;;;;;7.43;2.07;;;8.80;99.90;;;;;;4162908;28;20532;-77
2022/11/10 06:49:30;;;;;;;4.37;1.70;;;8.70;99.90;;;;;;4162093;28;20287;-77
2022/11/10 06:51:32;;;;;;;4.40;1.83;;;8.70;99.90;;;;;;4163608;28;20595;-77
2022/11/10 06:53:35;;;;;;;3.43;1.70;;;8.70;99.90;;;;;;4161139;28;21312;-77
2022/11/10 06:55:39;;;;;;;4.67;2.10;;;8.70;99.90;;;;;;4160223;28;21251;-76
2022/11/10 06:57:41;;;;;;;6.60;2.83;;;8.70;99.90;;;;;;4162425;28;20504;-76
2022/11/10 06:59:43;;;;;;;5.63;2.20;;;8.70;99.90;;;;;;4156481;28;20485;-76
2022/11/10 07:01:45;;;;;;;8.10;2.23;;;8.70;99.90;;;;;;4164546;28;20487;-76
2022/11/10 07:03:47;;;;;;;4.27;2.27;;;8.70;99.90;;;;;;4161680;28;20458;-77
2022/11/10 07:05:48;;;;;;;6.47;2.07;;;8.70;99.90;;;;;;4165051;28;20577;-77
2022/11/10 07:07:51;;;;;;;6.40;2.20;;;8.60;99.90;;;;;;4161262;28;20476;-77
2022/11/10 07:09:55;;;;;;;5.30;1.77;;;8.60;99.90;;;;;;4163827;28;20489;-76
2022/11/10 07:11:58;;;;;;;5.10;1.80;;;8.60;99.90;;;;;;4162882;28;20264;-76
2022/11/10 07:14:00;;;;;;;3.17;1.50;;;8.60;99.90;;;;;;4174261;28;20492;-75
2022/11/10 07:16:04;;;;;;;5.80;1.63;;;8.60;99.90;;;;;;4164158;28;20529;-76
2022/11/10 07:18:06;;;;;;;7.00;1.40;;;8.60;99.90;;;;;;4160229;28;20430;-76
2022/11/10 07:20:09;;;;;;;3.47;1.90;;;8.60;99.90;;;;;;4168710;28;20271;-75
2022/11/10 07:22:14;;;;;;;4.90;1.70;;;8.60;99.90;;;;;;4159005;28;20464;-75
2022/11/10 07:24:16;;;;;;;4.03;1.63;;;8.60;99.90;;;;;;4164339;28;20470;-76
2022/11/10 07:26:18;;;;;;;4.50;1.77;;;8.60;99.90;;;;;;4166332;28;20493;-76
2022/11/10 07:28:21;;;;;;;5.77;2.23;;;8.60;99.90;;;;;;4161184;28;20458;-77
2022/11/10 07:30:23;;;;;;;4.43;1.60;;;8.60;99.90;;;;;;4163046;28;20493;-76
2022/11/10 07:32:25;;;;;;;11.80;1.80;;;8.60;99.90;;;;;;4163274;28;20469;-76
2022/11/10 07:34:27;;;;;;;6.57;1.90;;;8.60;99.90;;;;;;4165097;28;20489;-76
2022/11/10 07:36:31;;;;;;;3.93;1.77;;;8.60;99.90;;;;;;4153619;28;20470;-76
2022/11/10 07:38:33;;;;;;;11.07;1.90;;;8.60;99.90;;;;;;4153533;28;20580;-76
2022/11/10 07:40:36;;;;;;;6.40;2.00;;;8.60;99.90;;;;;;4153143;28;20481;-75
2022/11/10 07:42:41;;;;;;;4.73;1.77;;;8.70;99.90;;;;;;4162536;28;20293;-76
2022/11/10 07:44:46;;;;;;;7.90;2.00;;;8.70;99.90;;;;;;4160353;28;20592;-76
2022/11/10 07:46:48;;;;;;;6.10;1.77;;;8.70;99.90;;;;;;4159171;28;20470;-76
2022/11/10 07:48:50;;;;;;;4.87;1.80;;;8.70;99.90;;;;;;4157739;28;20450;-76
2022/11/10 07:50:52;;;;;;;7.23;1.70;;;8.70;99.90;;;;;;4161305;28;20855;-75
2022/11/10 07:53:03;;;;;;;8.17;2.10;;;8.80;99.90;;;;;;4153964;28;20481;-78
2022/11/10 07:55:05;;;;;;;7.50;2.03;;;8.80;99.90;;;;;;4157697;28;20959;-75
2022/11/10 07:57:07;;;;;;;6.63;2.10;;;8.80;99.90;;;;;;4158310;28;21266;-76
2022/11/10 07:59:09;;;;;;;12.43;2.30;;;8.90;99.90;;;;;;4157345;28;20215;-76
2022/11/10 08:01:15;;;;;;;5.50;1.93;;;8.90;99.90;;;;;;4156356;28;20962;-76
2022/11/10 08:03:20;;;;;;;10.07;2.27;;;9.00;99.90;;;;;;4149837;28;20211;-76
2022/11/10 08:05:24;;;;;;;4.37;1.90;;;9.00;99.90;;;;;;4157899;28;20216;-76
2022/11/10 08:07:26;;;;;;;8.43;2.10;;;9.10;99.90;;;;;;4160617;28;20362;-76
2022/11/10 08:09:28;;;;;;;6.30;2.00;;;9.10;99.90;;;;;;4156607;28;20226;-76
2022/11/10 08:11:30;;;;;;;8.07;1.83;;;9.10;99.90;;;;;;4161860;28;20207;-76
2022/11/10 08:13:32;;;;;;;9.80;2.13;;;9.20;99.90;;;;;;4153284;28;20447;-76
2022/11/10 08:15:35;;;;;;;10.23;2.43;;;9.20;99.90;;;;;;4160143;28;20219;-76
2022/11/10 08:17:39;;;;;;;7.13;1.83;;;9.30;99.90;;;;;;4174477;28;20314;-76
2022/11/10 08:19:41;;;;;;;6.37;2.10;;;9.30;99.90;;;;;;4154078;28;20630;-76
2022/11/10 08:21:42;;;;;;;13.73;2.17;;;9.40;99.90;;;;;;4154248;28;20270;-76
2022/11/10 08:23:44;;;;;;;6.83;1.77;;;9.40;99.90;;;;;;4153389;28;20616;-76
2022/11/10 08:25:47;;;;;;;5.87;2.07;;;9.50;99.90;;;;;;4157568;28;20230;-76
2022/11/10 08:27:49;;;;;;;4.00;1.90;;;9.50;99.90;;;;;;4158032;28;20220;-76
2022/11/10 08:29:51;;;;;;;7.03;1.93;;;9.60;99.90;;;;;;4157050;28;20231;-76
2022/11/10 08:31:53;;;;;;;5.87;2.10;;;9.70;99.90;;;;;;4158758;28;20208;-76
2022/11/10 08:33:56;;;;;;;6.23;2.10;;;9.70;99.90;;;;;;4157518;28;20294;-77
2022/11/10 08:36:01;;;;;;;6.37;2.03;;;9.80;99.90;;;;;;4155983;28;20250;-76
2022/11/10 08:38:07;;;;;;;6.87;1.43;;;9.90;99.90;;;;;;4159328;28;20204;-76
2022/11/10 08:40:10;;;;;;;9.03;1.80;;;9.90;99.90;;;;;;4155584;28;20216;-76
2022/11/10 08:42:12;;;;;;;6.90;1.77;;;10.00;99.90;;;;;;4158326;28;20212;-76
2022/11/10 08:44:14;;;;;;;8.80;1.90;;;10.00;99.90;;;;;;4160736;28;20703;-76
2022/11/10 08:46:16;;;;;;;5.70;1.70;;;10.00;99.90;;;;;;4156226;28;20235;-76
2022/11/10 08:48:20;;;;;;;7.20;2.07;;;10.10;99.90;;;;;;4157274;28;20326;-76
2022/11/10 08:50:23;;;;;;;5.70;1.70;;;10.10;99.90;;;;;;4154185;28;20220;-76
2022/11/10 08:52:25;;;;;;;5.40;1.70;;;10.10;99.90;;;;;;4157916;28;20247;-76
2022/11/10 08:54:27;;;;;;;8.80;1.97;;;10.10;99.90;;;;;;4155364;28;20212;-76
2022/11/10 08:56:30;;;;;;;5.53;1.47;;;10.20;99.90;;;;;;4157464;28;20222;-76
2022/11/10 08:58:31;;;;;;;5.73;1.87;;;10.20;99.90;;;;;;4159656;28;20660;-75
2022/11/10 09:00:34;;;;;;;7.37;1.53;;;10.20;99.90;;;;;;4157802;28;20214;-76
2022/11/10 09:02:36;;;;;;;8.53;1.93;;;10.20;99.90;;;;;;4157861;28;20208;-76
2022/11/10 09:04:38;;;;;;;6.37;1.60;;;10.30;99.90;;;;;;4160248;28;20204;-76
2022/11/10 09:06:41;;;;;;;8.53;1.80;;;10.30;99.90;;;;;;4159446;28;20232;-76
2022/11/10 09:08:43;;;;;;;8.43;1.83;;;10.30;99.90;;;;;;4156716;28;20226;-76
2022/11/10 09:10:49;;;;;;;10.83;1.90;;;10.40;99.90;;;;;;4158344;28;21101;-76
2022/11/10 09:12:50;;;;;;;9.33;2.00;;;10.40;99.90;;;;;;4157408;28;20216;-76
2022/11/10 09:14:55;;;;;;;5.87;1.70;;;10.50;99.90;;;;;;4158985;28;20913;-75
2022/11/10 09:16:59;;;;;;;6.70;2.10;;;10.50;99.90;;;;;;4159524;28;20667;-75
2022/11/10 09:19:01;;;;;;;9.50;2.30;;;10.50;99.90;;;;;;4158494;28;20215;-75
2022/11/10 09:21:10;;;;;;;6.33;1.80;;;10.60;99.90;;;;;;4160192;28;20801;-75
2022/11/10 09:23:15;;;;;;;7.70;2.00;;;10.60;99.90;;;;;;4159870;28;20235;-75
2022/11/10 09:25:17;;;;;;;9.70;2.17;;;10.70;99.90;;;;;;4157060;28;20205;-75
2022/11/10 09:27:19;;;;;;;5.73;1.57;;;10.70;99.90;;;;;;4156417;28;20843;-75
2022/11/10 09:29:22;;;;;;;5.93;2.07;;;10.80;99.90;;;;;;4158127;28;20233;-75
2022/11/10 09:31:24;;;;;;;7.53;2.13;;;10.90;99.90;;;;;;4153901;28;20213;-76
2022/11/10 09:33:26;;;;;;;7.83;2.07;;;10.90;99.90;;;;;;4157760;28;20215;-75
2022/11/10 09:35:28;;;;;;;5.43;1.57;;;11.00;99.90;;;;;;4159923;28;20291;-75
2022/11/10 09:37:31;;;;;;;7.50;1.60;;;11.10;99.90;;;;;;4159898;28;20237;-75
2022/11/10 09:39:34;;;;;;;9.60;2.30;;;11.10;99.90;;;;;;4159151;28;20214;-76
2022/11/10 09:41:39;;;;;;;7.77;1.70;;;11.20;99.90;;;;;;4155795;28;20201;-75
2022/11/10 09:43:53;;;;;;;6.63;1.83;;;11.30;99.90;;;;;;4158349;28;20681;-75
2022/11/10 09:46:00;;;;;;;10.90;1.93;;;11.30;99.90;;;;;;4155508;28;20973;-75
2022/11/10 09:48:07;;;;;;;6.87;1.97;;;11.40;99.90;;;;;;4161270;28;20660;-75
2022/11/10 09:50:18;;;;;;;11.50;2.23;;;11.40;99.90;;;;;;4158208;28;20609;-75
2022/11/10 09:52:23;;;;;;;6.80;1.97;;;11.50;99.90;;;;;;4152915;28;20850;-76
2022/11/10 09:54:39;;;;;;;8.77;1.83;;;11.60;99.90;;;;;;4158480;28;20218;-75
2022/11/10 09:56:41;;;;;;;10.33;1.80;;;11.60;99.90;;;;;;4157519;28;20223;-75
2022/11/10 09:58:45;;;;;;;5.93;1.80;;;11.70;99.90;;;;;;4158784;28;21073;-75
2022/11/10 10:00:56;;;;;;;8.00;2.03;;;11.70;99.90;;;;;;4157314;28;20210;-75
2022/11/10 10:03:02;;;;;;;9.33;1.90;;;11.80;99.90;;;;;;4152623;28;20908;-76
2022/11/10 10:05:22;;;;;;;3.50;1.37;;;11.80;99.90;;;;;;4159725;28;20217;-76
2022/11/10 10:07:30;;;;;;;4.20;1.40;;;12.00;99.90;;;;;;4160698;28;20277;-75
2022/11/10 10:09:42;;;;;;;6.70;1.70;;;11.90;99.90;;;;;;4157206;28;20743;-75
2022/11/10 10:11:52;;;;;;;8.97;1.77;;;11.90;99.90;;;;;;4161498;28;20808;-75
2022/11/10 10:14:13;;;;;;;6.87;1.87;;;12.00;99.90;;;;;;4159616;28;20214;-75
2022/11/10 10:16:20;;;;;;;7.40;2.20;;;12.00;99.90;;;;;;4162421;28;20617;-75
2022/11/10 10:18:29;;;;;;;5.67;2.30;;;12.00;99.90;;;;;;4162000;28;20210;-76
2022/11/10 10:20:38;;;;;;;8.37;2.47;;;12.10;99.90;;;;;;4160570;28;20297;-76
2022/11/10 10:22:57;;;;;;;6.57;1.83;;;12.10;99.90;;;;;;4155301;28;20218;-75
2022/11/10 10:25:10;;;;;;;8.10;1.80;;;12.20;99.90;;;;;;4173109;28;20250;-76
2022/11/10 10:27:22;;;;;;;6.10;1.90;;;12.20;99.90;;;;;;4154017;28;20233;-75
2022/11/10 10:29:28;;;;;;;9.70;2.53;;;12.20;99.90;;;;;;4158607;28;20860;-77
2022/11/10 10:31:34;;;;;;;5.87;2.00;;;12.30;99.90;;;;;;4161214;28;20661;-76
2022/11/10 10:33:36;;;;;;;6.97;2.03;;;12.40;99.90;;;;;;4156137;28;20548;-75
2022/11/10 10:35:39;;;;;;;7.20;2.03;;;12.40;99.90;;;;;;4151375;28;20272;-77
2022/11/10 10:37:45;;;;;;;6.13;1.90;;;12.50;99.90;;;;;;4157291;28;20234;-75
2022/11/10 10:39:49;;;;;;;5.83;1.90;;;12.60;99.90;;;;;;4161649;28;20228;-75
2022/11/10 10:41:53;;;;;;;6.20;1.90;;;12.60;99.90;;;;;;4162563;28;20230;-75
2022/11/10 10:43:57;;;;;;;8.20;2.00;;;12.70;99.90;;;;;;4160743;28;20221;-75
2022/11/10 10:46:06;;;;;;;7.50;1.77;;;12.70;99.90;;;;;;4160599;28;20207;-75
2022/11/10 10:48:24;;;;;;;6.13;2.10;;;12.80;99.90;;;;;;4159887;28;20261;-76
2022/11/10 10:50:31;;;;;;;7.67;1.87;;;12.90;99.90;;;;;;4160017;28;20199;-75
2022/11/10 10:52:35;;;;;;;6.60;2.10;;;12.90;99.90;;;;;;4158808;28;20847;-76
2022/11/10 10:54:38;;;;;;;9.73;2.67;;;13.10;99.90;;;;;;4157481;28;20215;-76
2022/11/10 10:56:41;;;;;;;7.63;2.30;;;13.10;99.90;;;;;;4155995;28;20259;-76
2022/11/10 10:58:53;;;;;;;7.30;2.00;;;13.20;99.90;;;;;;4158912;28;20203;-76